sensor_id;sensor_type;location;lat;lon;timestamp;P1;durP1;ratioP1;P2;durP2;ratioP2
13012;SDS011;22580;57.670;12.006;2023-02-12T00:01:52;2.17;;;1.40;;
13012;SDS011;22580;57.670;12.006;2023-02-12T00:04:19;3.27;;;1.67;;
13012;SDS011;22580;57.670;12.006;2023-02-12T00:06:47;3.43;;;1.50;;
13012;SDS011;22580;57.670;12.006;2023-02-12T00:09:14;2.80;;;1.93;;
13012;SDS011;22580;57.670;12.006;2023-02-12T00:11:41;2.53;;;1.47;;
13012;SDS011;22580;57.670;12.006;2023-02-12T00:14:08;2.30;;;1.60;;
13012;SDS011;22580;57.670;12.006;2023-02-12T00:16:35;3.90;;;1.87;;
13012;SDS011;22580;57.670;12.006;2023-02-12T00:19:02;2.57;;;1.60;;
13012;SDS011;22580;57.670;12.006;2023-02-12T00:21:29;2.80;;;1.80;;
13012;SDS011;22580;57.670;12.006;2023-02-12T00:23:58;3.67;;;2.10;;
13012;SDS011;22580;57.670;12.006;2023-02-12T00:26:25;4.83;;;1.93;;
13012;SDS011;22580;57.670;12.006;2023-02-12T00:28:52;2.33;;;1.43;;
13012;SDS011;22580;57.670;12.006;2023-02-12T00:31:20;5.17;;;2.23;;
13012;SDS011;22580;57.670;12.006;2023-02-12T00:33:49;6.00;;;2.27;;
13012;SDS011;22580;57.670;12.006;2023-02-12T00:36:17;3.20;;;1.70;;
13012;SDS011;22580;57.670;12.006;2023-02-12T00:38:45;3.57;;;2.00;;
13012;SDS011;22580;57.670;12.006;2023-02-12T00:41:15;3.63;;;2.00;;
13012;SDS011;22580;57.670;12.006;2023-02-12T00:43:41;2.73;;;1.80;;
13012;SDS011;22580;57.670;12.006;2023-02-12T00:46:08;2.13;;;1.23;;
13012;SDS011;22580;57.670;12.006;2023-02-12T00:48:35;3.37;;;1.50;;
13012;SDS011;22580;57.670;12.006;2023-02-12T00:51:03;4.47;;;2.00;;
13012;SDS011;22580;57.670;12.006;2023-02-12T00:53:31;2.63;;;1.70;;
13012;SDS011;22580;57.670;12.006;2023-02-12T00:55:58;3.07;;;1.50;;
13012;SDS011;22580;57.670;12.006;2023-02-12T00:58:27;3.17;;;1.70;;
13012;SDS011;22580;57.670;12.006;2023-02-12T01:00:55;2.43;;;1.30;;
13012;SDS011;22580;57.670;12.006;2023-02-12T01:03:22;2.20;;;1.27;;
13012;SDS011;22580;57.670;12.006;2023-02-12T01:05:49;1.03;;;0.83;;
13012;SDS011;22580;57.670;12.006;2023-02-12T01:08:16;1.80;;;1.20;;
13012;SDS011;22580;57.670;12.006;2023-02-12T01:10:52;2.43;;;1.23;;
13012;SDS011;22580;57.670;12.006;2023-02-12T01:13:21;1.60;;;1.30;;
13012;SDS011;22580;57.670;12.006;2023-02-12T01:15:51;3.10;;;1.70;;
13012;SDS011;22580;57.670;12.006;2023-02-12T01:18:27;2.23;;;1.50;;
13012;SDS011;22580;57.670;12.006;2023-02-12T01:20:54;2.00;;;1.20;;
13012;SDS011;22580;57.670;12.006;2023-02-12T01:23:23;3.97;;;1.20;;
13012;SDS011;22580;57.670;12.006;2023-02-12T01:25:50;2.10;;;1.23;;
13012;SDS011;22580;57.670;12.006;2023-02-12T01:28:17;3.33;;;1.47;;
13012;SDS011;22580;57.670;12.006;2023-02-12T01:30:44;3.70;;;1.37;;
13012;SDS011;22580;57.670;12.006;2023-02-12T01:33:13;2.07;;;1.13;;
13012;SDS011;22580;57.670;12.006;2023-02-12T01:35:40;1.37;;;1.13;;
13012;SDS011;22580;57.670;12.006;2023-02-12T01:38:07;2.07;;;1.23;;
13012;SDS011;22580;57.670;12.006;2023-02-12T01:40:34;3.03;;;1.20;;
13012;SDS011;22580;57.670;12.006;2023-02-12T01:43:02;1.53;;;1.00;;
13012;SDS011;22580;57.670;12.006;2023-02-12T01:48:22;2.53;;;1.27;;
13012;SDS011;22580;57.670;12.006;2023-02-12T01:50:53;2.13;;;1.53;;
13012;SDS011;22580;57.670;12.006;2023-02-12T01:53:22;4.50;;;2.00;;
13012;SDS011;22580;57.670;12.006;2023-02-12T01:55:55;3.40;;;1.70;;
13012;SDS011;22580;57.670;12.006;2023-02-12T01:58:26;1.77;;;1.20;;
13012;SDS011;22580;57.670;12.006;2023-02-12T02:01:01;2.77;;;1.30;;
13012;SDS011;22580;57.670;12.006;2023-02-12T02:03:32;2.00;;;1.10;;
13012;SDS011;22580;57.670;12.006;2023-02-12T02:06:02;2.23;;;1.00;;
13012;SDS011;22580;57.670;12.006;2023-02-12T02:08:36;2.07;;;1.23;;
13012;SDS011;22580;57.670;12.006;2023-02-12T02:11:04;3.47;;;1.50;;
13012;SDS011;22580;57.670;12.006;2023-02-12T02:13:51;2.00;;;1.20;;
13012;SDS011;22580;57.670;12.006;2023-02-12T02:16:36;2.50;;;1.20;;
13012;SDS011;22580;57.670;12.006;2023-02-12T02:19:10;2.10;;;0.90;;
13012;SDS011;22580;57.670;12.006;2023-02-12T02:22:01;2.47;;;0.80;;
13012;SDS011;22580;57.670;12.006;2023-02-12T02:27:43;1.67;;;0.80;;
13012;SDS011;22580;57.670;12.006;2023-02-12T02:30:39;1.43;;;1.00;;
13012;SDS011;22580;57.670;12.006;2023-02-12T02:33:25;1.27;;;1.00;;
13012;SDS011;22580;57.670;12.006;2023-02-12T02:36:05;3.40;;;1.23;;
13012;SDS011;22580;57.670;12.006;2023-02-12T02:38:43;1.83;;;1.10;;
13012;SDS011;22580;57.670;12.006;2023-02-12T02:41:17;0.97;;;0.80;;
13012;SDS011;22580;57.670;12.006;2023-02-12T02:43:53;0.90;;;0.60;;
13012;SDS011;22580;57.670;12.006;2023-02-12T02:46:24;0.90;;;0.80;;
13012;SDS011;22580;57.670;12.006;2023-02-12T02:48:57;1.53;;;0.87;;
13012;SDS011;22580;57.670;12.006;2023-02-12T02:51:28;0.70;;;0.60;;
13012;SDS011;22580;57.670;12.006;2023-02-12T02:54:00;2.17;;;0.80;;
13012;SDS011;22580;57.670;12.006;2023-02-12T02:56:31;1.17;;;0.80;;
13012;SDS011;22580;57.670;12.006;2023-02-12T02:59:03;0.87;;;0.60;;
13012;SDS011;22580;57.670;12.006;2023-02-12T03:01:37;2.07;;;0.80;;
13012;SDS011;22580;57.670;12.006;2023-02-12T03:04:09;0.97;;;0.70;;
13012;SDS011;22580;57.670;12.006;2023-02-12T03:06:42;1.97;;;1.07;;
13012;SDS011;22580;57.670;12.006;2023-02-12T03:09:15;2.27;;;1.00;;
13012;SDS011;22580;57.670;12.006;2023-02-12T03:11:45;1.10;;;0.90;;
13012;SDS011;22580;57.670;12.006;2023-02-12T03:14:15;4.10;;;1.20;;
13012;SDS011;22580;57.670;12.006;2023-02-12T03:16:50;1.63;;;1.20;;
13012;SDS011;22580;57.670;12.006;2023-02-12T03:19:24;2.27;;;1.20;;
13012;SDS011;22580;57.670;12.006;2023-02-12T03:21:54;1.53;;;1.17;;
13012;SDS011;22580;57.670;12.006;2023-02-12T03:24:25;1.27;;;0.87;;
13012;SDS011;22580;57.670;12.006;2023-02-12T03:26:58;0.83;;;0.80;;
13012;SDS011;22580;57.670;12.006;2023-02-12T03:29:28;1.80;;;0.90;;
13012;SDS011;22580;57.670;12.006;2023-02-12T03:32:01;1.17;;;0.70;;
13012;SDS011;22580;57.670;12.006;2023-02-12T03:34:39;1.57;;;0.90;;
13012;SDS011;22580;57.670;12.006;2023-02-12T03:37:15;1.00;;;0.90;;
13012;SDS011;22580;57.670;12.006;2023-02-12T03:39:48;1.47;;;0.63;;
13012;SDS011;22580;57.670;12.006;2023-02-12T03:42:23;2.20;;;1.10;;
13012;SDS011;22580;57.670;12.006;2023-02-12T03:44:59;1.27;;;1.10;;
13012;SDS011;22580;57.670;12.006;2023-02-12T03:47:33;1.83;;;1.00;;
13012;SDS011;22580;57.670;12.006;2023-02-12T03:50:09;1.50;;;0.87;;
13012;SDS011;22580;57.670;12.006;2023-02-12T03:52:41;1.27;;;0.50;;
13012;SDS011;22580;57.670;12.006;2023-02-12T03:55:09;1.17;;;0.73;;
13012;SDS011;22580;57.670;12.006;2023-02-12T03:57:38;1.30;;;0.73;;
13012;SDS011;22580;57.670;12.006;2023-02-12T04:00:10;0.50;;;0.50;;
13012;SDS011;22580;57.670;12.006;2023-02-12T04:02:41;1.80;;;0.70;;
13012;SDS011;22580;57.670;12.006;2023-02-12T04:05:14;1.07;;;0.40;;
13012;SDS011;22580;57.670;12.006;2023-02-12T04:07:42;1.30;;;0.80;;
13012;SDS011;22580;57.670;12.006;2023-02-12T04:10:10;1.97;;;0.80;;
13012;SDS011;22580;57.670;12.006;2023-02-12T04:12:39;0.70;;;0.60;;
13012;SDS011;22580;57.670;12.006;2023-02-12T04:15:15;0.50;;;0.40;;
13012;SDS011;22580;57.670;12.006;2023-02-12T04:18:10;1.03;;;0.63;;
13012;SDS011;22580;57.670;12.006;2023-02-12T04:20:47;0.67;;;0.30;;
13012;SDS011;22580;57.670;12.006;2023-02-12T04:23:27;2.13;;;0.83;;
13012;SDS011;22580;57.670;12.006;2023-02-12T04:26:05;0.50;;;0.47;;
13012;SDS011;22580;57.670;12.006;2023-02-12T04:28:41;1.17;;;0.70;;
13012;SDS011;22580;57.670;12.006;2023-02-12T04:31:16;2.50;;;0.90;;
13012;SDS011;22580;57.670;12.006;2023-02-12T04:33:52;0.93;;;0.70;;
13012;SDS011;22580;57.670;12.006;2023-02-12T04:36:26;1.30;;;0.80;;
13012;SDS011;22580;57.670;12.006;2023-02-12T04:38:57;0.60;;;0.60;;
13012;SDS011;22580;57.670;12.006;2023-02-12T04:41:27;0.30;;;0.30;;
13012;SDS011;22580;57.670;12.006;2023-02-12T04:43:55;0.53;;;0.40;;
13012;SDS011;22580;57.670;12.006;2023-02-12T04:46:22;0.33;;;0.33;;
13012;SDS011;22580;57.670;12.006;2023-02-12T04:48:54;0.87;;;0.70;;
13012;SDS011;22580;57.670;12.006;2023-02-12T04:51:23;0.60;;;0.40;;
13012;SDS011;22580;57.670;12.006;2023-02-12T04:53:50;0.53;;;0.40;;
13012;SDS011;22580;57.670;12.006;2023-02-12T04:56:17;0.77;;;0.50;;
13012;SDS011;22580;57.670;12.006;2023-02-12T04:58:44;0.97;;;0.70;;
13012;SDS011;22580;57.670;12.006;2023-02-12T05:01:12;0.37;;;0.37;;
13012;SDS011;22580;57.670;12.006;2023-02-12T05:03:39;0.40;;;0.40;;
13012;SDS011;22580;57.670;12.006;2023-02-12T05:06:08;0.50;;;0.40;;
13012;SDS011;22580;57.670;12.006;2023-02-12T05:08:35;0.80;;;0.50;;
13012;SDS011;22580;57.670;12.006;2023-02-12T05:11:03;0.63;;;0.60;;
13012;SDS011;22580;57.670;12.006;2023-02-12T05:13:32;0.40;;;0.40;;
13012;SDS011;22580;57.670;12.006;2023-02-12T05:15:59;1.00;;;0.70;;
13012;SDS011;22580;57.670;12.006;2023-02-12T05:18:29;1.07;;;0.70;;
13012;SDS011;22580;57.670;12.006;2023-02-12T05:20:56;0.80;;;0.60;;
13012;SDS011;22580;57.670;12.006;2023-02-12T05:23:26;0.50;;;0.40;;
13012;SDS011;22580;57.670;12.006;2023-02-12T05:25:53;0.50;;;0.50;;
13012;SDS011;22580;57.670;12.006;2023-02-12T05:28:23;0.73;;;0.50;;
13012;SDS011;22580;57.670;12.006;2023-02-12T05:30:52;0.60;;;0.43;;
13012;SDS011;22580;57.670;12.006;2023-02-12T05:33:19;0.40;;;0.40;;
13012;SDS011;22580;57.670;12.006;2023-02-12T05:35:46;0.63;;;0.50;;
13012;SDS011;22580;57.670;12.006;2023-02-12T05:38:14;0.67;;;0.60;;
13012;SDS011;22580;57.670;12.006;2023-02-12T05:40:42;1.07;;;0.70;;
13012;SDS011;22580;57.670;12.006;2023-02-12T05:43:10;1.40;;;0.70;;
13012;SDS011;22580;57.670;12.006;2023-02-12T05:45:37;0.60;;;0.53;;
13012;SDS011;22580;57.670;12.006;2023-02-12T05:48:05;0.70;;;0.70;;
13012;SDS011;22580;57.670;12.006;2023-02-12T05:50:32;0.70;;;0.70;;
13012;SDS011;22580;57.670;12.006;2023-02-12T05:52:59;0.40;;;0.40;;
13012;SDS011;22580;57.670;12.006;2023-02-12T05:55:26;0.60;;;0.60;;
13012;SDS011;22580;57.670;12.006;2023-02-12T05:57:56;0.47;;;0.47;;
13012;SDS011;22580;57.670;12.006;2023-02-12T06:00:23;0.53;;;0.53;;
13012;SDS011;22580;57.670;12.006;2023-02-12T06:02:50;0.50;;;0.40;;
13012;SDS011;22580;57.670;12.006;2023-02-12T06:05:17;0.30;;;0.30;;
13012;SDS011;22580;57.670;12.006;2023-02-12T06:07:46;0.40;;;0.40;;
13012;SDS011;22580;57.670;12.006;2023-02-12T06:10:14;0.30;;;0.30;;
13012;SDS011;22580;57.670;12.006;2023-02-12T06:12:41;0.40;;;0.40;;
13012;SDS011;22580;57.670;12.006;2023-02-12T06:15:10;0.40;;;0.40;;
13012;SDS011;22580;57.670;12.006;2023-02-12T06:17:37;0.20;;;0.20;;
13012;SDS011;22580;57.670;12.006;2023-02-12T06:20:04;0.30;;;0.30;;
13012;SDS011;22580;57.670;12.006;2023-02-12T06:22:31;0.40;;;0.30;;
13012;SDS011;22580;57.670;12.006;2023-02-12T06:24:58;0.87;;;0.40;;
13012;SDS011;22580;57.670;12.006;2023-02-12T06:27:25;0.50;;;0.33;;
13012;SDS011;22580;57.670;12.006;2023-02-12T06:29:53;0.50;;;0.47;;
13012;SDS011;22580;57.670;12.006;2023-02-12T06:32:24;0.20;;;0.20;;
13012;SDS011;22580;57.670;12.006;2023-02-12T06:34:52;0.27;;;0.23;;
13012;SDS011;22580;57.670;12.006;2023-02-12T06:37:19;0.30;;;0.30;;
13012;SDS011;22580;57.670;12.006;2023-02-12T06:39:46;0.20;;;0.20;;
13012;SDS011;22580;57.670;12.006;2023-02-12T06:42:13;0.40;;;0.40;;
13012;SDS011;22580;57.670;12.006;2023-02-12T06:44:42;0.30;;;0.30;;
13012;SDS011;22580;57.670;12.006;2023-02-12T06:47:10;1.70;;;0.70;;
13012;SDS011;22580;57.670;12.006;2023-02-12T06:49:39;0.50;;;0.50;;
13012;SDS011;22580;57.670;12.006;2023-02-12T06:52:06;1.80;;;0.60;;
13012;SDS011;22580;57.670;12.006;2023-02-12T06:54:33;0.80;;;0.50;;
13012;SDS011;22580;57.670;12.006;2023-02-12T06:57:00;0.73;;;0.60;;
13012;SDS011;22580;57.670;12.006;2023-02-12T06:59:27;0.67;;;0.60;;
13012;SDS011;22580;57.670;12.006;2023-02-12T07:01:54;0.83;;;0.43;;
13012;SDS011;22580;57.670;12.006;2023-02-12T07:04:22;0.50;;;0.50;;
13012;SDS011;22580;57.670;12.006;2023-02-12T07:06:51;0.60;;;0.30;;
13012;SDS011;22580;57.670;12.006;2023-02-12T07:09:18;0.40;;;0.40;;
13012;SDS011;22580;57.670;12.006;2023-02-12T07:11:46;0.30;;;0.30;;
13012;SDS011;22580;57.670;12.006;2023-02-12T07:14:13;0.43;;;0.30;;
13012;SDS011;22580;57.670;12.006;2023-02-12T07:16:42;0.40;;;0.40;;
13012;SDS011;22580;57.670;12.006;2023-02-12T07:19:09;0.60;;;0.50;;
13012;SDS011;22580;57.670;12.006;2023-02-12T07:21:38;0.40;;;0.30;;
13012;SDS011;22580;57.670;12.006;2023-02-12T07:24:08;1.07;;;0.40;;
13012;SDS011;22580;57.670;12.006;2023-02-12T07:26:36;1.47;;;0.50;;
13012;SDS011;22580;57.670;12.006;2023-02-12T07:29:04;0.60;;;0.60;;
13012;SDS011;22580;57.670;12.006;2023-02-12T07:31:31;0.97;;;0.40;;
13012;SDS011;22580;57.670;12.006;2023-02-12T07:33:59;0.83;;;0.50;;
13012;SDS011;22580;57.670;12.006;2023-02-12T07:36:27;0.40;;;0.40;;
13012;SDS011;22580;57.670;12.006;2023-02-12T07:38:56;0.97;;;0.50;;
13012;SDS011;22580;57.670;12.006;2023-02-12T07:41:25;1.03;;;0.63;;
13012;SDS011;22580;57.670;12.006;2023-02-12T07:43:54;1.67;;;0.73;;
13012;SDS011;22580;57.670;12.006;2023-02-12T07:46:25;1.33;;;0.60;;
13012;SDS011;22580;57.670;12.006;2023-02-12T07:48:56;0.63;;;0.50;;
13012;SDS011;22580;57.670;12.006;2023-02-12T07:51:25;0.60;;;0.40;;
13012;SDS011;22580;57.670;12.006;2023-02-12T07:53:52;1.27;;;0.60;;
13012;SDS011;22580;57.670;12.006;2023-02-12T07:56:21;0.90;;;0.60;;
13012;SDS011;22580;57.670;12.006;2023-02-12T07:58:51;1.37;;;0.70;;
13012;SDS011;22580;57.670;12.006;2023-02-12T08:01:21;0.50;;;0.50;;
13012;SDS011;22580;57.670;12.006;2023-02-12T08:03:50;1.20;;;0.70;;
13012;SDS011;22580;57.670;12.006;2023-02-12T08:06:19;0.87;;;0.80;;
13012;SDS011;22580;57.670;12.006;2023-02-12T08:08:49;0.83;;;0.77;;
13012;SDS011;22580;57.670;12.006;2023-02-12T08:11:16;4.90;;;1.70;;
13012;SDS011;22580;57.670;12.006;2023-02-12T08:13:43;4.13;;;1.37;;
13012;SDS011;22580;57.670;12.006;2023-02-12T08:16:12;1.87;;;1.00;;
13012;SDS011;22580;57.670;12.006;2023-02-12T08:18:41;1.43;;;0.80;;
13012;SDS011;22580;57.670;12.006;2023-02-12T08:21:09;1.07;;;0.90;;
13012;SDS011;22580;57.670;12.006;2023-02-12T08:23:37;1.73;;;1.00;;
13012;SDS011;22580;57.670;12.006;2023-02-12T08:26:05;3.17;;;1.00;;
13012;SDS011;22580;57.670;12.006;2023-02-12T08:28:34;9.27;;;2.03;;
13012;SDS011;22580;57.670;12.006;2023-02-12T08:31:02;3.33;;;1.30;;
13012;SDS011;22580;57.670;12.006;2023-02-12T08:33:31;2.73;;;1.00;;
13012;SDS011;22580;57.670;12.006;2023-02-12T08:36:02;4.53;;;1.80;;
13012;SDS011;22580;57.670;12.006;2023-02-12T08:38:30;2.03;;;1.10;;
13012;SDS011;22580;57.670;12.006;2023-02-12T08:41:01;1.60;;;1.00;;
13012;SDS011;22580;57.670;12.006;2023-02-12T08:43:29;2.47;;;0.90;;
13012;SDS011;22580;57.670;12.006;2023-02-12T08:46:00;6.43;;;2.13;;
13012;SDS011;22580;57.670;12.006;2023-02-12T08:48:28;4.10;;;1.40;;
13012;SDS011;22580;57.670;12.006;2023-02-12T08:51:01;3.00;;;0.93;;
13012;SDS011;22580;57.670;12.006;2023-02-12T08:53:30;1.93;;;1.23;;
13012;SDS011;22580;57.670;12.006;2023-02-12T08:55:57;3.50;;;1.50;;
13012;SDS011;22580;57.670;12.006;2023-02-12T08:58:24;3.63;;;1.30;;
13012;SDS011;22580;57.670;12.006;2023-02-12T09:00:51;2.87;;;1.20;;
13012;SDS011;22580;57.670;12.006;2023-02-12T09:03:18;2.77;;;1.40;;
13012;SDS011;22580;57.670;12.006;2023-02-12T09:05:45;2.47;;;0.97;;
13012;SDS011;22580;57.670;12.006;2023-02-12T09:08:14;3.30;;;1.77;;
13012;SDS011;22580;57.670;12.006;2023-02-12T09:10:41;2.67;;;1.30;;
13012;SDS011;22580;57.670;12.006;2023-02-12T09:13:09;3.70;;;1.43;;
13012;SDS011;22580;57.670;12.006;2023-02-12T09:15:41;4.67;;;1.63;;
13012;SDS011;22580;57.670;12.006;2023-02-12T09:18:09;6.13;;;1.87;;
13012;SDS011;22580;57.670;12.006;2023-02-12T09:20:37;6.83;;;1.80;;
13012;SDS011;22580;57.670;12.006;2023-02-12T09:23:06;3.20;;;1.53;;
13012;SDS011;22580;57.670;12.006;2023-02-12T09:25:37;5.00;;;1.80;;
13012;SDS011;22580;57.670;12.006;2023-02-12T09:28:05;3.03;;;1.17;;
13012;SDS011;22580;57.670;12.006;2023-02-12T09:30:32;2.70;;;1.33;;
13012;SDS011;22580;57.670;12.006;2023-02-12T09:32:59;3.63;;;1.30;;
13012;SDS011;22580;57.670;12.006;2023-02-12T09:35:26;2.20;;;0.97;;
13012;SDS011;22580;57.670;12.006;2023-02-12T09:37:53;1.17;;;0.70;;
13012;SDS011;22580;57.670;12.006;2023-02-12T09:40:21;1.83;;;0.80;;
13012;SDS011;22580;57.670;12.006;2023-02-12T09:43:02;1.23;;;0.70;;
13012;SDS011;22580;57.670;12.006;2023-02-12T09:45:34;1.40;;;0.70;;
13012;SDS011;22580;57.670;12.006;2023-02-12T09:48:10;1.80;;;0.90;;
13012;SDS011;22580;57.670;12.006;2023-02-12T09:50:50;1.63;;;1.03;;
13012;SDS011;22580;57.670;12.006;2023-02-12T09:53:20;1.67;;;0.90;;
13012;SDS011;22580;57.670;12.006;2023-02-12T09:55:50;3.33;;;1.40;;
13012;SDS011;22580;57.670;12.006;2023-02-12T09:58:20;2.20;;;0.80;;
13012;SDS011;22580;57.670;12.006;2023-02-12T10:00:55;3.37;;;1.13;;
13012;SDS011;22580;57.670;12.006;2023-02-12T10:03:23;4.00;;;1.57;;
13012;SDS011;22580;57.670;12.006;2023-02-12T10:05:52;3.20;;;1.23;;
13012;SDS011;22580;57.670;12.006;2023-02-12T10:08:31;5.57;;;1.70;;
13012;SDS011;22580;57.670;12.006;2023-02-12T10:11:14;5.67;;;1.50;;
13012;SDS011;22580;57.670;12.006;2023-02-12T10:13:53;3.37;;;1.10;;
13012;SDS011;22580;57.670;12.006;2023-02-12T10:16:36;1.20;;;0.80;;
13012;SDS011;22580;57.670;12.006;2023-02-12T10:19:18;2.20;;;1.10;;
13012;SDS011;22580;57.670;12.006;2023-02-12T10:22:00;2.73;;;1.10;;
13012;SDS011;22580;57.670;12.006;2023-02-12T10:24:39;1.80;;;0.93;;
13012;SDS011;22580;57.670;12.006;2023-02-12T10:27:24;7.13;;;2.53;;
13012;SDS011;22580;57.670;12.006;2023-02-12T10:30:12;7.27;;;2.63;;
13012;SDS011;22580;57.670;12.006;2023-02-12T10:32:42;4.53;;;3.47;;
13012;SDS011;22580;57.670;12.006;2023-02-12T10:35:12;5.10;;;2.53;;
13012;SDS011;22580;57.670;12.006;2023-02-12T10:37:42;4.60;;;2.13;;
13012;SDS011;22580;57.670;12.006;2023-02-12T10:40:15;3.63;;;1.90;;
13012;SDS011;22580;57.670;12.006;2023-02-12T10:42:46;4.67;;;2.10;;
13012;SDS011;22580;57.670;12.006;2023-02-12T10:45:18;3.47;;;1.60;;
13012;SDS011;22580;57.670;12.006;2023-02-12T10:47:47;3.97;;;1.97;;
13012;SDS011;22580;57.670;12.006;2023-02-12T10:50:19;5.27;;;1.80;;
13012;SDS011;22580;57.670;12.006;2023-02-12T10:52:53;2.87;;;1.40;;
13012;SDS011;22580;57.670;12.006;2023-02-12T10:55:26;2.87;;;1.37;;
13012;SDS011;22580;57.670;12.006;2023-02-12T10:57:55;2.93;;;1.30;;
13012;SDS011;22580;57.670;12.006;2023-02-12T11:00:25;2.30;;;1.10;;
13012;SDS011;22580;57.670;12.006;2023-02-12T11:03:18;2.60;;;1.30;;
13012;SDS011;22580;57.670;12.006;2023-02-12T11:05:49;1.87;;;1.23;;
13012;SDS011;22580;57.670;12.006;2023-02-12T11:08:25;3.00;;;1.30;;
13012;SDS011;22580;57.670;12.006;2023-02-12T11:11:01;6.23;;;1.50;;
13012;SDS011;22580;57.670;12.006;2023-02-12T11:13:32;3.80;;;1.13;;
13012;SDS011;22580;57.670;12.006;2023-02-12T11:16:00;3.70;;;1.03;;
13012;SDS011;22580;57.670;12.006;2023-02-12T11:18:28;3.83;;;1.40;;
13012;SDS011;22580;57.670;12.006;2023-02-12T11:20:58;5.60;;;1.67;;
13012;SDS011;22580;57.670;12.006;2023-02-12T11:23:28;5.60;;;1.60;;
13012;SDS011;22580;57.670;12.006;2023-02-12T11:25:58;1.70;;;1.00;;
13012;SDS011;22580;57.670;12.006;2023-02-12T11:28:27;6.13;;;1.47;;
13012;SDS011;22580;57.670;12.006;2023-02-12T11:30:55;5.30;;;1.40;;
13012;SDS011;22580;57.670;12.006;2023-02-12T11:33:26;4.63;;;1.30;;
13012;SDS011;22580;57.670;12.006;2023-02-12T11:35:55;3.63;;;1.30;;
13012;SDS011;22580;57.670;12.006;2023-02-12T11:38:26;2.50;;;1.00;;
13012;SDS011;22580;57.670;12.006;2023-02-12T11:40:57;4.10;;;1.60;;
13012;SDS011;22580;57.670;12.006;2023-02-12T11:43:27;4.17;;;1.63;;
13012;SDS011;22580;57.670;12.006;2023-02-12T11:45:56;4.40;;;1.50;;
13012;SDS011;22580;57.670;12.006;2023-02-12T11:48:28;4.23;;;1.40;;
13012;SDS011;22580;57.670;12.006;2023-02-12T11:50:58;3.00;;;1.20;;
13012;SDS011;22580;57.670;12.006;2023-02-12T11:53:29;4.50;;;1.20;;
13012;SDS011;22580;57.670;12.006;2023-02-12T11:55:59;3.50;;;1.37;;
13012;SDS011;22580;57.670;12.006;2023-02-12T11:58:29;6.60;;;1.57;;
13012;SDS011;22580;57.670;12.006;2023-02-12T12:01:10;2.53;;;1.23;;
13012;SDS011;22580;57.670;12.006;2023-02-12T12:03:44;3.10;;;1.30;;
13012;SDS011;22580;57.670;12.006;2023-02-12T12:06:20;2.23;;;1.13;;
13012;SDS011;22580;57.670;12.006;2023-02-12T12:08:52;2.97;;;1.30;;
13012;SDS011;22580;57.670;12.006;2023-02-12T12:11:25;2.20;;;1.03;;
13012;SDS011;22580;57.670;12.006;2023-02-12T12:14:01;3.50;;;1.23;;
13012;SDS011;22580;57.670;12.006;2023-02-12T12:16:32;2.83;;;0.87;;
13012;SDS011;22580;57.670;12.006;2023-02-12T12:19:23;1.87;;;0.90;;
13012;SDS011;22580;57.670;12.006;2023-02-12T12:22:20;1.67;;;0.70;;
13012;SDS011;22580;57.670;12.006;2023-02-12T12:24:57;2.47;;;0.90;;
13012;SDS011;22580;57.670;12.006;2023-02-12T12:27:32;2.53;;;1.03;;
13012;SDS011;22580;57.670;12.006;2023-02-12T12:30:35;2.30;;;0.90;;
13012;SDS011;22580;57.670;12.006;2023-02-12T12:33:10;2.77;;;0.90;;
13012;SDS011;22580;57.670;12.006;2023-02-12T12:35:44;3.53;;;1.30;;
13012;SDS011;22580;57.670;12.006;2023-02-12T12:38:27;2.90;;;1.10;;
13012;SDS011;22580;57.670;12.006;2023-02-12T12:41:07;2.73;;;1.00;;
13012;SDS011;22580;57.670;12.006;2023-02-12T12:43:46;5.13;;;1.30;;
13012;SDS011;22580;57.670;12.006;2023-02-12T12:46:32;2.90;;;1.17;;
13012;SDS011;22580;57.670;12.006;2023-02-12T12:49:12;4.80;;;1.70;;
13012;SDS011;22580;57.670;12.006;2023-02-12T12:52:14;3.23;;;1.37;;
13012;SDS011;22580;57.670;12.006;2023-02-12T12:54:58;4.00;;;1.40;;
13012;SDS011;22580;57.670;12.006;2023-02-12T12:57:45;4.77;;;1.40;;
13012;SDS011;22580;57.670;12.006;2023-02-12T13:00:24;4.03;;;1.30;;
13012;SDS011;22580;57.670;12.006;2023-02-12T13:03:14;2.80;;;1.23;;
13012;SDS011;22580;57.670;12.006;2023-02-12T13:06:05;2.60;;;1.23;;
13012;SDS011;22580;57.670;12.006;2023-02-12T13:08:54;3.27;;;1.17;;
13012;SDS011;22580;57.670;12.006;2023-02-12T13:11:46;4.00;;;1.10;;
13012;SDS011;22580;57.670;12.006;2023-02-12T13:14:28;5.87;;;1.67;;
13012;SDS011;22580;57.670;12.006;2023-02-12T13:17:03;2.80;;;1.13;;
13012;SDS011;22580;57.670;12.006;2023-02-12T13:19:41;6.20;;;1.47;;
13012;SDS011;22580;57.670;12.006;2023-02-12T13:22:19;2.07;;;0.80;;
13012;SDS011;22580;57.670;12.006;2023-02-12T13:24:54;2.90;;;1.37;;
13012;SDS011;22580;57.670;12.006;2023-02-12T13:27:27;2.23;;;1.10;;
13012;SDS011;22580;57.670;12.006;2023-02-12T13:29:58;2.10;;;0.97;;
13012;SDS011;22580;57.670;12.006;2023-02-12T13:32:33;2.07;;;1.40;;
13012;SDS011;22580;57.670;12.006;2023-02-12T13:35:05;3.80;;;1.20;;
13012;SDS011;22580;57.670;12.006;2023-02-12T13:37:36;2.40;;;1.00;;
13012;SDS011;22580;57.670;12.006;2023-02-12T13:40:13;4.80;;;1.37;;
13012;SDS011;22580;57.670;12.006;2023-02-12T13:42:43;3.40;;;1.30;;
13012;SDS011;22580;57.670;12.006;2023-02-12T13:45:20;3.67;;;1.13;;
13012;SDS011;22580;57.670;12.006;2023-02-12T13:47:58;4.40;;;1.23;;
13012;SDS011;22580;57.670;12.006;2023-02-12T13:50:39;4.80;;;1.30;;
13012;SDS011;22580;57.670;12.006;2023-02-12T13:53:13;3.77;;;1.30;;
13012;SDS011;22580;57.670;12.006;2023-02-12T13:55:54;5.03;;;1.53;;
13012;SDS011;22580;57.670;12.006;2023-02-12T13:58:39;5.67;;;1.30;;
13012;SDS011;22580;57.670;12.006;2023-02-12T14:04:20;5.33;;;1.77;;
13012;SDS011;22580;57.670;12.006;2023-02-12T14:06:53;4.57;;;1.50;;
13012;SDS011;22580;57.670;12.006;2023-02-12T14:09:25;3.40;;;1.40;;
13012;SDS011;22580;57.670;12.006;2023-02-12T14:11:58;3.43;;;1.10;;
13012;SDS011;22580;57.670;12.006;2023-02-12T14:14:27;3.13;;;1.00;;
13012;SDS011;22580;57.670;12.006;2023-02-12T14:16:59;4.47;;;1.43;;
13012;SDS011;22580;57.670;12.006;2023-02-12T14:20:05;2.80;;;1.20;;
13012;SDS011;22580;57.670;12.006;2023-02-12T14:26:02;3.13;;;1.20;;
13012;SDS011;22580;57.670;12.006;2023-02-12T14:28:39;4.50;;;1.10;;
13012;SDS011;22580;57.670;12.006;2023-02-12T14:31:28;6.73;;;1.43;;
13012;SDS011;22580;57.670;12.006;2023-02-12T14:42:56;3.40;;;1.30;;
13012;SDS011;22580;57.670;12.006;2023-02-12T14:45:40;5.43;;;1.47;;
13012;SDS011;22580;57.670;12.006;2023-02-12T14:48:07;3.57;;;1.40;;
13012;SDS011;22580;57.670;12.006;2023-02-12T14:51:07;5.63;;;1.90;;
13012;SDS011;22580;57.670;12.006;2023-02-12T14:53:42;4.93;;;1.23;;
13012;SDS011;22580;57.670;12.006;2023-02-12T14:56:12;2.67;;;1.10;;
13012;SDS011;22580;57.670;12.006;2023-02-12T14:58:39;5.13;;;1.63;;
13012;SDS011;22580;57.670;12.006;2023-02-12T15:01:06;7.40;;;1.80;;
13012;SDS011;22580;57.670;12.006;2023-02-12T15:03:39;4.67;;;1.57;;
13012;SDS011;22580;57.670;12.006;2023-02-12T15:06:10;2.07;;;0.80;;
13012;SDS011;22580;57.670;12.006;2023-02-12T15:08:47;5.50;;;1.77;;
13012;SDS011;22580;57.670;12.006;2023-02-12T15:11:28;4.67;;;1.80;;
13012;SDS011;22580;57.670;12.006;2023-02-12T15:14:04;3.13;;;1.30;;
13012;SDS011;22580;57.670;12.006;2023-02-12T15:16:42;1.13;;;0.80;;
13012;SDS011;22580;57.670;12.006;2023-02-12T15:19:17;2.53;;;0.70;;
13012;SDS011;22580;57.670;12.006;2023-02-12T15:21:54;1.13;;;0.60;;
13012;SDS011;22580;57.670;12.006;2023-02-12T15:24:22;3.47;;;1.23;;